sensor_id;sensor_type;location;lat;lon;timestamp;P1;durP1;ratioP1;P2;durP2;ratioP2
67378;SDS011;54262;44.642;-0.974;2023-02-15T00:00:08;12.15;;;11.23;;
67378;SDS011;54262;44.642;-0.974;2023-02-15T00:02:38;13.13;;;12.23;;
67378;SDS011;54262;44.642;-0.974;2023-02-15T00:05:07;14.05;;;12.90;;
67378;SDS011;54262;44.642;-0.974;2023-02-15T00:07:34;15.77;;;14.32;;
67378;SDS011;54262;44.642;-0.974;2023-02-15T00:09:59;14.95;;;13.63;;
67378;SDS011;54262;44.642;-0.974;2023-02-15T00:12:25;14.38;;;13.13;;
67378;SDS011;54262;44.642;-0.974;2023-02-15T00:14:51;13.88;;;12.73;;
67378;SDS011;54262;44.642;-0.974;2023-02-15T00:17:16;13.15;;;12.23;;
67378;SDS011;54262;44.642;-0.974;2023-02-15T00:19:42;14.38;;;12.80;;
67378;SDS011;54262;44.642;-0.974;2023-02-15T00:22:08;13.65;;;12.63;;
67378;SDS011;54262;44.642;-0.974;2023-02-15T00:24:34;15.23;;;13.73;;
67378;SDS011;54262;44.642;-0.974;2023-02-15T00:26:59;14.25;;;12.98;;
67378;SDS011;54262;44.642;-0.974;2023-02-15T00:29:25;14.55;;;13.10;;
67378;SDS011;54262;44.642;-0.974;2023-02-15T00:31:51;17.80;;;14.02;;
67378;SDS011;54262;44.642;-0.974;2023-02-15T00:34:18;15.35;;;14.00;;
67378;SDS011;54262;44.642;-0.974;2023-02-15T00:36:46;14.20;;;13.18;;
67378;SDS011;54262;44.642;-0.974;2023-02-15T00:39:13;15.38;;;14.20;;
67378;SDS011;54262;44.642;-0.974;2023-02-15T00:41:40;14.77;;;13.68;;
67378;SDS011;54262;44.642;-0.974;2023-02-15T00:44:05;14.70;;;13.40;;
67378;SDS011;54262;44.642;-0.974;2023-02-15T00:46:31;12.63;;;11.73;;
67378;SDS011;54262;44.642;-0.974;2023-02-15T00:48:57;14.13;;;12.70;;
67378;SDS011;54262;44.642;-0.974;2023-02-15T00:51:23;14.05;;;12.90;;
67378;SDS011;54262;44.642;-0.974;2023-02-15T00:53:49;15.68;;;12.98;;
67378;SDS011;54262;44.642;-0.974;2023-02-15T00:56:15;16.95;;;14.30;;
67378;SDS011;54262;44.642;-0.974;2023-02-15T00:58:41;13.95;;;13.10;;
67378;SDS011;54262;44.642;-0.974;2023-02-15T01:01:09;18.88;;;13.98;;
67378;SDS011;54262;44.642;-0.974;2023-02-15T01:03:36;15.45;;;13.45;;
67378;SDS011;54262;44.642;-0.974;2023-02-15T01:06:05;13.80;;;12.65;;
67378;SDS011;54262;44.642;-0.974;2023-02-15T01:08:30;15.25;;;13.50;;
67378;SDS011;54262;44.642;-0.974;2023-02-15T01:11:10;17.05;;;13.73;;
67378;SDS011;54262;44.642;-0.974;2023-02-15T01:13:37;17.15;;;12.73;;
67378;SDS011;54262;44.642;-0.974;2023-02-15T01:16:03;13.88;;;12.93;;
67378;SDS011;54262;44.642;-0.974;2023-02-15T01:18:29;15.02;;;13.68;;
67378;SDS011;54262;44.642;-0.974;2023-02-15T01:20:55;13.75;;;12.70;;
67378;SDS011;54262;44.642;-0.974;2023-02-15T01:23:21;12.98;;;12.10;;
67378;SDS011;54262;44.642;-0.974;2023-02-15T01:25:46;14.15;;;11.98;;
67378;SDS011;54262;44.642;-0.974;2023-02-15T01:28:12;15.35;;;13.05;;
67378;SDS011;54262;44.642;-0.974;2023-02-15T01:30:38;12.65;;;11.75;;
67378;SDS011;54262;44.642;-0.974;2023-02-15T01:33:04;15.07;;;13.55;;
67378;SDS011;54262;44.642;-0.974;2023-02-15T01:35:29;14.48;;;12.98;;
67378;SDS011;54262;44.642;-0.974;2023-02-15T01:37:55;14.85;;;12.98;;
67378;SDS011;54262;44.642;-0.974;2023-02-15T01:40:24;12.60;;;11.65;;
67378;SDS011;54262;44.642;-0.974;2023-02-15T01:42:51;23.17;;;12.95;;
67378;SDS011;54262;44.642;-0.974;2023-02-15T01:45:19;14.50;;;12.55;;
67378;SDS011;54262;44.642;-0.974;2023-02-15T01:47:56;13.90;;;13.07;;
67378;SDS011;54262;44.642;-0.974;2023-02-15T01:50:33;12.60;;;11.45;;
67378;SDS011;54262;44.642;-0.974;2023-02-15T01:53:48;13.38;;;12.45;;
67378;SDS011;54262;44.642;-0.974;2023-02-15T01:56:05;13.38;;;12.15;;
67378;SDS011;54262;44.642;-0.974;2023-02-15T01:58:37;14.07;;;12.75;;
67378;SDS011;54262;44.642;-0.974;2023-02-15T02:01:03;11.45;;;10.55;;
67378;SDS011;54262;44.642;-0.974;2023-02-15T02:06:23;14.40;;;13.23;;
67378;SDS011;54262;44.642;-0.974;2023-02-15T02:08:49;15.75;;;12.85;;
67378;SDS011;54262;44.642;-0.974;2023-02-15T02:11:15;13.43;;;12.30;;
67378;SDS011;54262;44.642;-0.974;2023-02-15T02:13:41;14.65;;;13.32;;
67378;SDS011;54262;44.642;-0.974;2023-02-15T02:16:11;14.38;;;13.25;;
67378;SDS011;54262;44.642;-0.974;2023-02-15T02:21:30;14.63;;;13.43;;
67378;SDS011;54262;44.642;-0.974;2023-02-15T02:24:46;13.75;;;12.57;;
67378;SDS011;54262;44.642;-0.974;2023-02-15T02:41:16;13.13;;;11.50;;
67378;SDS011;54262;44.642;-0.974;2023-02-15T02:43:54;13.13;;;11.80;;
67378;SDS011;54262;44.642;-0.974;2023-02-15T02:49:07;20.58;;;13.00;;
67378;SDS011;54262;44.642;-0.974;2023-02-15T02:51:32;12.70;;;11.90;;
67378;SDS011;54262;44.642;-0.974;2023-02-15T02:53:59;13.45;;;12.23;;
67378;SDS011;54262;44.642;-0.974;2023-02-15T02:59:02;13.93;;;11.60;;
67378;SDS011;54262;44.642;-0.974;2023-02-15T03:01:35;13.98;;;12.68;;
67378;SDS011;54262;44.642;-0.974;2023-02-15T03:04:21;10.85;;;9.85;;
67378;SDS011;54262;44.642;-0.974;2023-02-15T03:07:10;14.23;;;12.77;;
67378;SDS011;54262;44.642;-0.974;2023-02-15T03:09:44;14.00;;;12.68;;
67378;SDS011;54262;44.642;-0.974;2023-02-15T03:15:34;15.40;;;13.43;;
67378;SDS011;54262;44.642;-0.974;2023-02-15T03:17:41;15.25;;;13.93;;
67378;SDS011;54262;44.642;-0.974;2023-02-15T03:20:18;15.23;;;13.63;;
67378;SDS011;54262;44.642;-0.974;2023-02-15T03:22:55;15.65;;;13.65;;
67378;SDS011;54262;44.642;-0.974;2023-02-15T03:28:04;13.40;;;12.13;;
67378;SDS011;54262;44.642;-0.974;2023-02-15T03:30:34;15.38;;;14.15;;
67378;SDS011;54262;44.642;-0.974;2023-02-15T03:33:02;16.88;;;15.45;;
67378;SDS011;54262;44.642;-0.974;2023-02-15T03:35:33;24.48;;;17.20;;
67378;SDS011;54262;44.642;-0.974;2023-02-15T03:38:06;17.63;;;15.82;;
67378;SDS011;54262;44.642;-0.974;2023-02-15T03:40:40;14.38;;;12.88;;
67378;SDS011;54262;44.642;-0.974;2023-02-15T03:46:21;15.23;;;14.07;;
67378;SDS011;54262;44.642;-0.974;2023-02-15T03:49:02;16.80;;;15.23;;
67378;SDS011;54262;44.642;-0.974;2023-02-15T03:51:29;20.00;;;13.82;;
67378;SDS011;54262;44.642;-0.974;2023-02-15T03:56:37;16.38;;;14.80;;
67378;SDS011;54262;44.642;-0.974;2023-02-15T03:59:06;15.70;;;14.05;;
67378;SDS011;54262;44.642;-0.974;2023-02-15T04:04:24;27.08;;;15.82;;
67378;SDS011;54262;44.642;-0.974;2023-02-15T04:07:06;20.23;;;16.08;;
67378;SDS011;54262;44.642;-0.974;2023-02-15T04:09:33;21.88;;;17.27;;
67378;SDS011;54262;44.642;-0.974;2023-02-15T04:12:17;19.58;;;16.10;;
67378;SDS011;54262;44.642;-0.974;2023-02-15T04:14:43;17.88;;;15.63;;
67378;SDS011;54262;44.642;-0.974;2023-02-15T04:17:27;16.95;;;15.25;;
67378;SDS011;54262;44.642;-0.974;2023-02-15T04:19:53;16.42;;;14.95;;
67378;SDS011;54262;44.642;-0.974;2023-02-15T04:22:37;16.75;;;15.57;;
67378;SDS011;54262;44.642;-0.974;2023-02-15T04:25:21;17.35;;;15.45;;
67378;SDS011;54262;44.642;-0.974;2023-02-15T04:27:48;22.05;;;15.45;;
67378;SDS011;54262;44.642;-0.974;2023-02-15T04:30:15;18.67;;;15.07;;
67378;SDS011;54262;44.642;-0.974;2023-02-15T04:32:43;21.42;;;15.70;;
67378;SDS011;54262;44.642;-0.974;2023-02-15T04:35:09;18.25;;;16.40;;
67378;SDS011;54262;44.642;-0.974;2023-02-15T04:37:36;23.77;;;17.20;;
67378;SDS011;54262;44.642;-0.974;2023-02-15T04:40:03;17.00;;;15.25;;
67378;SDS011;54262;44.642;-0.974;2023-02-15T04:42:30;17.52;;;15.27;;
67378;SDS011;54262;44.642;-0.974;2023-02-15T04:44:55;20.55;;;16.10;;
67378;SDS011;54262;44.642;-0.974;2023-02-15T04:47:24;19.90;;;17.02;;
67378;SDS011;54262;44.642;-0.974;2023-02-15T04:49:49;19.35;;;15.68;;
67378;SDS011;54262;44.642;-0.974;2023-02-15T04:52:15;17.85;;;16.45;;
67378;SDS011;54262;44.642;-0.974;2023-02-15T04:54:42;19.95;;;16.23;;
67378;SDS011;54262;44.642;-0.974;2023-02-15T04:57:08;19.67;;;14.02;;
67378;SDS011;54262;44.642;-0.974;2023-02-15T04:59:34;18.23;;;15.98;;
67378;SDS011;54262;44.642;-0.974;2023-02-15T05:02:00;23.50;;;16.65;;
67378;SDS011;54262;44.642;-0.974;2023-02-15T05:04:28;17.67;;;16.02;;
67378;SDS011;54262;44.642;-0.974;2023-02-15T05:06:54;26.33;;;16.50;;
67378;SDS011;54262;44.642;-0.974;2023-02-15T05:09:20;19.83;;;15.48;;
67378;SDS011;54262;44.642;-0.974;2023-02-15T05:11:45;26.27;;;15.65;;
67378;SDS011;54262;44.642;-0.974;2023-02-15T05:14:11;26.40;;;18.30;;
67378;SDS011;54262;44.642;-0.974;2023-02-15T05:16:37;20.83;;;16.38;;
67378;SDS011;54262;44.642;-0.974;2023-02-15T05:19:03;15.55;;;14.07;;
67378;SDS011;54262;44.642;-0.974;2023-02-15T05:21:29;19.23;;;16.55;;
67378;SDS011;54262;44.642;-0.974;2023-02-15T05:23:54;32.50;;;17.85;;
67378;SDS011;54262;44.642;-0.974;2023-02-15T05:26:22;16.20;;;14.70;;
67378;SDS011;54262;44.642;-0.974;2023-02-15T05:29:07;28.50;;;17.58;;
67378;SDS011;54262;44.642;-0.974;2023-02-15T05:31:34;25.85;;;16.33;;
67378;SDS011;54262;44.642;-0.974;2023-02-15T05:34:00;17.20;;;15.55;;
67378;SDS011;54262;44.642;-0.974;2023-02-15T05:36:26;14.18;;;12.77;;
67378;SDS011;54262;44.642;-0.974;2023-02-15T05:38:53;20.40;;;15.30;;
67378;SDS011;54262;44.642;-0.974;2023-02-15T05:41:18;17.55;;;15.77;;
67378;SDS011;54262;44.642;-0.974;2023-02-15T05:43:44;18.50;;;16.58;;
67378;SDS011;54262;44.642;-0.974;2023-02-15T05:46:10;21.45;;;16.40;;
67378;SDS011;54262;44.642;-0.974;2023-02-15T05:48:40;20.13;;;16.77;;
67378;SDS011;54262;44.642;-0.974;2023-02-15T05:51:07;17.85;;;16.00;;
67378;SDS011;54262;44.642;-0.974;2023-02-15T05:53:36;19.63;;;17.10;;
67378;SDS011;54262;44.642;-0.974;2023-02-15T05:56:03;15.32;;;14.00;;
67378;SDS011;54262;44.642;-0.974;2023-02-15T05:58:31;20.08;;;16.35;;
67378;SDS011;54262;44.642;-0.974;2023-02-15T06:00:59;22.63;;;16.45;;
67378;SDS011;54262;44.642;-0.974;2023-02-15T06:03:24;24.30;;;15.32;;
67378;SDS011;54262;44.642;-0.974;2023-02-15T06:05:53;18.38;;;16.63;;
67378;SDS011;54262;44.642;-0.974;2023-02-15T06:08:19;23.38;;;20.15;;
67378;SDS011;54262;44.642;-0.974;2023-02-15T06:10:45;48.35;;;29.08;;
67378;SDS011;54262;44.642;-0.974;2023-02-15T06:13:11;67.88;;;32.33;;
67378;SDS011;54262;44.642;-0.974;2023-02-15T06:15:37;88.38;;;46.35;;
67378;SDS011;54262;44.642;-0.974;2023-02-15T06:18:03;32.22;;;21.23;;
67378;SDS011;54262;44.642;-0.974;2023-02-15T06:20:29;44.78;;;28.75;;
67378;SDS011;54262;44.642;-0.974;2023-02-15T06:22:54;21.05;;;18.48;;
67378;SDS011;54262;44.642;-0.974;2023-02-15T06:25:20;24.27;;;20.23;;
67378;SDS011;54262;44.642;-0.974;2023-02-15T06:27:46;21.25;;;18.05;;
67378;SDS011;54262;44.642;-0.974;2023-02-15T06:30:11;21.98;;;18.90;;
67378;SDS011;54262;44.642;-0.974;2023-02-15T06:32:38;20.60;;;15.38;;
67378;SDS011;54262;44.642;-0.974;2023-02-15T06:35:05;18.80;;;17.00;;
67378;SDS011;54262;44.642;-0.974;2023-02-15T06:37:31;29.63;;;19.35;;
67378;SDS011;54262;44.642;-0.974;2023-02-15T06:39:57;28.60;;;20.58;;
67378;SDS011;54262;44.642;-0.974;2023-02-15T06:42:23;29.33;;;22.52;;
67378;SDS011;54262;44.642;-0.974;2023-02-15T06:44:49;31.02;;;20.95;;
67378;SDS011;54262;44.642;-0.974;2023-02-15T06:47:15;28.73;;;20.83;;
67378;SDS011;54262;44.642;-0.974;2023-02-15T06:49:41;32.25;;;21.95;;
67378;SDS011;54262;44.642;-0.974;2023-02-15T06:52:06;24.77;;;22.00;;
67378;SDS011;54262;44.642;-0.974;2023-02-15T06:54:32;37.00;;;22.85;;
67378;SDS011;54262;44.642;-0.974;2023-02-15T06:56:58;28.48;;;21.58;;
67378;SDS011;54262;44.642;-0.974;2023-02-15T06:59:23;32.58;;;22.65;;
67378;SDS011;54262;44.642;-0.974;2023-02-15T07:01:49;31.08;;;21.15;;
67378;SDS011;54262;44.642;-0.974;2023-02-15T07:04:15;27.98;;;20.73;;
67378;SDS011;54262;44.642;-0.974;2023-02-15T07:06:41;44.72;;;25.25;;
67378;SDS011;54262;44.642;-0.974;2023-02-15T07:09:06;38.65;;;23.42;;
67378;SDS011;54262;44.642;-0.974;2023-02-15T07:11:32;37.28;;;23.15;;
67378;SDS011;54262;44.642;-0.974;2023-02-15T07:14:16;37.50;;;23.35;;
67378;SDS011;54262;44.642;-0.974;2023-02-15T07:16:42;31.67;;;22.67;;
67378;SDS011;54262;44.642;-0.974;2023-02-15T07:19:07;39.20;;;23.25;;
67378;SDS011;54262;44.642;-0.974;2023-02-15T07:21:34;46.28;;;24.77;;
67378;SDS011;54262;44.642;-0.974;2023-02-15T07:24:00;32.75;;;24.70;;
67378;SDS011;54262;44.642;-0.974;2023-02-15T07:26:26;37.40;;;23.00;;
67378;SDS011;54262;44.642;-0.974;2023-02-15T07:28:51;42.05;;;23.45;;
67378;SDS011;54262;44.642;-0.974;2023-02-15T07:31:17;36.78;;;22.67;;
67378;SDS011;54262;44.642;-0.974;2023-02-15T07:33:43;47.45;;;27.50;;
67378;SDS011;54262;44.642;-0.974;2023-02-15T07:36:09;50.95;;;29.95;;
67378;SDS011;54262;44.642;-0.974;2023-02-15T07:38:37;25.58;;;21.00;;
67378;SDS011;54262;44.642;-0.974;2023-02-15T07:41:05;30.38;;;21.60;;
67378;SDS011;54262;44.642;-0.974;2023-02-15T07:43:33;26.33;;;20.85;;
67378;SDS011;54262;44.642;-0.974;2023-02-15T07:46:01;40.60;;;23.73;;
67378;SDS011;54262;44.642;-0.974;2023-02-15T07:48:28;25.23;;;21.42;;
67378;SDS011;54262;44.642;-0.974;2023-02-15T07:50:54;27.70;;;18.52;;
67378;SDS011;54262;44.642;-0.974;2023-02-15T07:53:23;43.22;;;23.33;;
67378;SDS011;54262;44.642;-0.974;2023-02-15T07:55:49;39.63;;;23.92;;
67378;SDS011;54262;44.642;-0.974;2023-02-15T07:58:14;25.65;;;21.67;;
67378;SDS011;54262;44.642;-0.974;2023-02-15T08:00:40;24.80;;;21.13;;
67378;SDS011;54262;44.642;-0.974;2023-02-15T08:03:26;40.25;;;24.55;;
67378;SDS011;54262;44.642;-0.974;2023-02-15T08:05:57;32.65;;;22.95;;
67378;SDS011;54262;44.642;-0.974;2023-02-15T08:08:24;37.95;;;24.85;;
67378;SDS011;54262;44.642;-0.974;2023-02-15T08:11:03;28.30;;;19.33;;
67378;SDS011;54262;44.642;-0.974;2023-02-15T08:13:48;30.35;;;21.70;;
67378;SDS011;54262;44.642;-0.974;2023-02-15T08:16:29;35.70;;;23.58;;
67378;SDS011;54262;44.642;-0.974;2023-02-15T08:19:18;29.27;;;21.52;;
67378;SDS011;54262;44.642;-0.974;2023-02-15T08:21:46;33.40;;;21.85;;
67378;SDS011;54262;44.642;-0.974;2023-02-15T08:24:18;42.25;;;25.38;;
67378;SDS011;54262;44.642;-0.974;2023-02-15T08:26:45;25.65;;;19.90;;
67378;SDS011;54262;44.642;-0.974;2023-02-15T08:29:13;46.05;;;24.27;;
67378;SDS011;54262;44.642;-0.974;2023-02-15T08:31:42;26.65;;;19.40;;
67378;SDS011;54262;44.642;-0.974;2023-02-15T08:34:09;33.42;;;20.80;;
67378;SDS011;54262;44.642;-0.974;2023-02-15T08:36:36;32.47;;;21.55;;
67378;SDS011;54262;44.642;-0.974;2023-02-15T08:39:03;25.08;;;20.65;;
67378;SDS011;54262;44.642;-0.974;2023-02-15T08:41:31;27.70;;;19.73;;
67378;SDS011;54262;44.642;-0.974;2023-02-15T08:43:59;28.95;;;19.08;;
67378;SDS011;54262;44.642;-0.974;2023-02-15T08:46:27;22.38;;;16.17;;
67378;SDS011;54262;44.642;-0.974;2023-02-15T08:48:55;19.50;;;17.15;;
67378;SDS011;54262;44.642;-0.974;2023-02-15T08:51:22;23.85;;;18.63;;
67378;SDS011;54262;44.642;-0.974;2023-02-15T08:54:07;15.85;;;13.77;;
67378;SDS011;54262;44.642;-0.974;2023-02-15T08:56:36;25.33;;;16.05;;
67378;SDS011;54262;44.642;-0.974;2023-02-15T08:59:07;19.35;;;17.27;;
67378;SDS011;54262;44.642;-0.974;2023-02-15T09:01:37;17.88;;;16.13;;
67378;SDS011;54262;44.642;-0.974;2023-02-15T09:04:05;17.40;;;15.68;;
67378;SDS011;54262;44.642;-0.974;2023-02-15T09:06:36;22.83;;;16.42;;
67378;SDS011;54262;44.642;-0.974;2023-02-15T09:09:02;17.63;;;15.82;;
67378;SDS011;54262;44.642;-0.974;2023-02-15T09:11:33;19.92;;;16.35;;
67378;SDS011;54262;44.642;-0.974;2023-02-15T09:14:02;16.92;;;15.35;;
67378;SDS011;54262;44.642;-0.974;2023-02-15T09:16:30;20.98;;;14.68;;
67378;SDS011;54262;44.642;-0.974;2023-02-15T09:18:58;15.27;;;13.70;;
67378;SDS011;54262;44.642;-0.974;2023-02-15T09:21:28;15.52;;;13.98;;
67378;SDS011;54262;44.642;-0.974;2023-02-15T09:23:58;16.73;;;15.10;;
67378;SDS011;54262;44.642;-0.974;2023-02-15T09:26:25;18.77;;;14.60;;
67378;SDS011;54262;44.642;-0.974;2023-02-15T09:28:54;16.77;;;12.90;;
67378;SDS011;54262;44.642;-0.974;2023-02-15T09:31:23;18.73;;;13.40;;
67378;SDS011;54262;44.642;-0.974;2023-02-15T09:33:50;19.48;;;12.85;;
67378;SDS011;54262;44.642;-0.974;2023-02-15T09:36:21;14.85;;;12.32;;
67378;SDS011;54262;44.642;-0.974;2023-02-15T10:18:00;8.77;;;8.32;;
67378;SDS011;54262;44.642;-0.974;2023-02-15T10:26:25;7.70;;;7.10;;
67378;SDS011;54262;44.642;-0.974;2023-02-15T10:29:09;7.38;;;6.75;;
67378;SDS011;54262;44.642;-0.974;2023-02-15T10:37:41;7.03;;;6.32;;
67378;SDS011;54262;44.642;-0.974;2023-02-15T10:40:25;6.70;;;6.15;;
67378;SDS011;54262;44.642;-0.974;2023-02-15T10:48:51;6.75;;;5.50;;
67378;SDS011;54262;44.642;-0.974;2023-02-15T10:51:16;4.82;;;4.53;;
67378;SDS011;54262;44.642;-0.974;2023-02-15T11:02:25;4.63;;;4.32;;
67378;SDS011;54262;44.642;-0.974;2023-02-15T11:08:14;6.70;;;3.78;;
67378;SDS011;54262;44.642;-0.974;2023-02-15T11:10:48;6.60;;;5.00;;
67378;SDS011;54262;44.642;-0.974;2023-02-15T11:13:17;5.55;;;5.10;;
67378;SDS011;54262;44.642;-0.974;2023-02-15T11:15:46;5.43;;;5.00;;
67378;SDS011;54262;44.642;-0.974;2023-02-15T11:18:24;12.63;;;6.75;;
67378;SDS011;54262;44.642;-0.974;2023-02-15T11:20:55;6.35;;;4.20;;
67378;SDS011;54262;44.642;-0.974;2023-02-15T11:23:28;5.38;;;4.97;;
67378;SDS011;54262;44.642;-0.974;2023-02-15T11:26:02;4.70;;;4.40;;
67378;SDS011;54262;44.642;-0.974;2023-02-15T11:28:34;5.10;;;4.70;;
67378;SDS011;54262;44.642;-0.974;2023-02-15T11:31:17;4.75;;;4.35;;
67378;SDS011;54262;44.642;-0.974;2023-02-15T11:33:46;5.03;;;4.32;;
67378;SDS011;54262;44.642;-0.974;2023-02-15T11:36:32;6.93;;;3.92;;
67378;SDS011;54262;44.642;-0.974;2023-02-15T11:39:09;4.80;;;4.50;;
67378;SDS011;54262;44.642;-0.974;2023-02-15T11:41:40;4.53;;;4.15;;
67378;SDS011;54262;44.642;-0.974;2023-02-15T11:46:41;4.63;;;4.25;;
67378;SDS011;54262;44.642;-0.974;2023-02-15T11:49:21;4.45;;;3.55;;
67378;SDS011;54262;44.642;-0.974;2023-02-15T11:51:49;4.40;;;4.00;;
67378;SDS011;54262;44.642;-0.974;2023-02-15T11:54:17;3.58;;;3.38;;
67378;SDS011;54262;44.642;-0.974;2023-02-15T11:56:46;4.05;;;3.85;;
67378;SDS011;54262;44.642;-0.974;2023-02-15T11:59:32;4.88;;;4.47;;
67378;SDS011;54262;44.642;-0.974;2023-02-15T12:02:01;3.83;;;3.53;;
67378;SDS011;54262;44.642;-0.974;2023-02-15T12:12:38;3.10;;;2.88;;
67378;SDS011;54262;44.642;-0.974;2023-02-15T12:15:05;7.10;;;2.75;;
67378;SDS011;54262;44.642;-0.974;2023-02-15T12:17:33;5.18;;;3.03;;
67378;SDS011;54262;44.642;-0.974;2023-02-15T12:20:04;3.15;;;2.97;;
67378;SDS011;54262;44.642;-0.974;2023-02-15T12:22:34;2.70;;;2.50;;
67378;SDS011;54262;44.642;-0.974;2023-02-15T12:25:04;3.42;;;3.13;;
67378;SDS011;54262;44.642;-0.974;2023-02-15T12:27:54;3.17;;;2.97;;
67378;SDS011;54262;44.642;-0.974;2023-02-15T12:30:30;3.30;;;3.00;;
67378;SDS011;54262;44.642;-0.974;2023-02-15T12:35:41;2.95;;;2.85;;
67378;SDS011;54262;44.642;-0.974;2023-02-15T12:40:34;2.70;;;2.60;;
67378;SDS011;54262;44.642;-0.974;2023-02-15T12:43:02;2.58;;;2.47;;
67378;SDS011;54262;44.642;-0.974;2023-02-15T12:45:34;2.60;;;2.38;;
67378;SDS011;54262;44.642;-0.974;2023-02-15T12:50:33;2.83;;;2.25;;
67378;SDS011;54262;44.642;-0.974;2023-02-15T12:53:12;2.72;;;2.17;;
67378;SDS011;54262;44.642;-0.974;2023-02-15T12:55:38;2.42;;;2.33;;
67378;SDS011;54262;44.642;-0.974;2023-02-15T12:58:16;2.78;;;2.33;;
67378;SDS011;54262;44.642;-0.974;2023-02-15T13:00:43;2.65;;;2.55;;
67378;SDS011;54262;44.642;-0.974;2023-02-15T13:03:16;2.60;;;2.40;;
67378;SDS011;54262;44.642;-0.974;2023-02-15T13:05:44;2.72;;;2.53;;
67378;SDS011;54262;44.642;-0.974;2023-02-15T13:11:06;2.13;;;2.03;;
67378;SDS011;54262;44.642;-0.974;2023-02-15T13:13:35;2.97;;;1.92;;
67378;SDS011;54262;44.642;-0.974;2023-02-15T13:18:51;2.28;;;2.17;;
67378;SDS011;54262;44.642;-0.974;2023-02-15T13:21:18;2.22;;;2.13;;
67378;SDS011;54262;44.642;-0.974;2023-02-15T13:23:50;2.30;;;2.20;;
67378;SDS011;54262;44.642;-0.974;2023-02-15T13:26:19;2.45;;;2.25;;
67378;SDS011;54262;44.642;-0.974;2023-02-15T13:28:57;2.22;;;2.13;;
67378;SDS011;54262;44.642;-0.974;2023-02-15T13:31:27;2.03;;;1.92;;
67378;SDS011;54262;44.642;-0.974;2023-02-15T13:42:48;2.38;;;2.03;;
67378;SDS011;54262;44.642;-0.974;2023-02-15T13:48:01;1.88;;;1.77;;
67378;SDS011;54262;44.642;-0.974;2023-02-15T13:53:37;3.05;;;1.80;;
67378;SDS011;54262;44.642;-0.974;2023-02-15T13:56:48;2.00;;;1.83;;
67378;SDS011;54262;44.642;-0.974;2023-02-15T14:04:47;1.73;;;1.63;;
67378;SDS011;54262;44.642;-0.974;2023-02-15T14:12:57;1.90;;;1.80;;
67378;SDS011;54262;44.642;-0.974;2023-02-15T14:15:19;1.90;;;1.80;;
67378;SDS011;54262;44.642;-0.974;2023-02-15T14:28:45;2.00;;;1.90;;
67378;SDS011;54262;44.642;-0.974;2023-02-15T14:31:22;1.35;;;1.25;;
67378;SDS011;54262;44.642;-0.974;2023-02-15T14:33:55;1.45;;;1.35;;
67378;SDS011;54262;44.642;-0.974;2023-02-15T14:36:22;1.92;;;1.83;;
67378;SDS011;54262;44.642;-0.974;2023-02-15T14:38:59;3.33;;;1.60;;
67378;SDS011;54262;44.642;-0.974;2023-02-15T14:44:21;2.00;;;1.90;;
67378;SDS011;54262;44.642;-0.974;2023-02-15T14:47:10;1.95;;;1.85;;
67378;SDS011;54262;44.642;-0.974;2023-02-15T14:56:04;1.60;;;1.50;;
67378;SDS011;54262;44.642;-0.974;2023-02-15T14:58:32;1.50;;;1.40;;
67378;SDS011;54262;44.642;-0.974;2023-02-15T15:01:05;2.10;;;1.60;;
67378;SDS011;54262;44.642;-0.974;2023-02-15T15:03:32;1.65;;;1.55;;
67378;SDS011;54262;44.642;-0.974;2023-02-15T15:06:00;1.88;;;1.77;;
67378;SDS011;54262;44.642;-0.974;2023-02-15T15:08:33;2.90;;;1.48;;
67378;SDS011;54262;44.642;-0.974;2023-02-15T15:13:56;1.65;;;1.52;;
67378;SDS011;54262;44.642;-0.974;2023-02-15T15:16:24;1.73;;;1.63;;
67378;SDS011;54262;44.642;-0.974;2023-02-15T15:18:54;1.55;;;1.40;;
67378;SDS011;54262;44.642;-0.974;2023-02-15T15:30:00;1.45;;;1.45;;
67378;SDS011;54262;44.642;-0.974;2023-02-15T15:32:26;2.00;;;1.45;;
67378;SDS011;54262;44.642;-0.974;2023-02-15T15:37:42;2.20;;;1.90;;
67378;SDS011;54262;44.642;-0.974;2023-02-15T15:40:38;2.20;;;1.63;;
67378;SDS011;54262;44.642;-0.974;2023-02-15T15:46:12;1.70;;;1.60;;
67378;SDS011;54262;44.642;-0.974;2023-02-15T15:49:18;3.22;;;1.88;;
67378;SDS011;54262;44.642;-0.974;2023-02-15T15:56:57;1.58;;;1.42;;
67378;SDS011;54262;44.642;-0.974;2023-02-15T15:59:26;2.38;;;1.83;;
67378;SDS011;54262;44.642;-0.974;2023-02-15T16:01:55;1.80;;;1.70;;
67378;SDS011;54262;44.642;-0.974;2023-02-15T16:04:26;1.55;;;1.45;;
67378;SDS011;54262;44.642;-0.974;2023-02-15T16:06:55;1.83;;;1.30;;
67378;SDS011;54262;44.642;-0.974;2023-02-15T16:12:23;1.70;;;1.55;;
67378;SDS011;54262;44.642;-0.974;2023-02-15T16:14:52;2.28;;;2.08;;
67378;SDS011;54262;44.642;-0.974;2023-02-15T16:17:25;1.33;;;1.33;;
67378;SDS011;54262;44.642;-0.974;2023-02-15T16:20:00;2.28;;;1.90;;
67378;SDS011;54262;44.642;-0.974;2023-02-15T16:22:30;2.28;;;1.50;;
67378;SDS011;54262;44.642;-0.974;2023-02-15T16:27:44;3.33;;;2.28;;
67378;SDS011;54262;44.642;-0.974;2023-02-15T16:33:07;2.08;;;1.48;;
67378;SDS011;54262;44.642;-0.974;2023-02-15T16:35:57;1.52;;;1.38;;
67378;SDS011;54262;44.642;-0.974;2023-02-15T16:38:38;1.60;;;1.45;;
67378;SDS011;54262;44.642;-0.974;2023-02-15T16:41:39;2.15;;;1.63;;
67378;SDS011;54262;44.642;-0.974;2023-02-15T16:46:46;1.67;;;1.58;;
67378;SDS011;54262;44.642;-0.974;2023-02-15T16:49:25;1.25;;;1.20;;
67378;SDS011;54262;44.642;-0.974;2023-02-15T16:52:05;1.80;;;1.70;;
67378;SDS011;54262;44.642;-0.974;2023-02-15T16:54:32;2.20;;;1.70;;
67378;SDS011;54262;44.642;-0.974;2023-02-15T16:56:59;1.30;;;1.30;;
67378;SDS011;54262;44.642;-0.974;2023-02-15T16:59:31;1.40;;;1.30;;
67378;SDS011;54262;44.642;-0.974;2023-02-15T17:04:44;1.27;;;1.17;;
67378;SDS011;54262;44.642;-0.974;2023-02-15T17:07:19;2.83;;;2.42;;
67378;SDS011;54262;44.642;-0.974;2023-02-15T17:09:49;8.85;;;4.28;;
67378;SDS011;54262;44.642;-0.974;2023-02-15T17:15:25;2.92;;;2.72;;
67378;SDS011;54262;44.642;-0.974;2023-02-15T17:18:16;2.95;;;2.45;;
67378;SDS011;54262;44.642;-0.974;2023-02-15T17:20:45;6.50;;;2.97;;
67378;SDS011;54262;44.642;-0.974;2023-02-15T17:25:58;3.90;;;3.60;;
67378;SDS011;54262;44.642;-0.974;2023-02-15T17:28:35;1.92;;;1.83;;
67378;SDS011;54262;44.642;-0.974;2023-02-15T17:31:02;5.22;;;3.17;;
67378;SDS011;54262;44.642;-0.974;2023-02-15T17:41:23;7.45;;;3.47;;
67378;SDS011;54262;44.642;-0.974;2023-02-15T17:43:53;5.85;;;4.32;;
67378;SDS011;54262;44.642;-0.974;2023-02-15T17:46:19;4.97;;;4.25;;
67378;SDS011;54262;44.642;-0.974;2023-02-15T17:48:48;13.27;;;4.70;;
67378;SDS011;54262;44.642;-0.974;2023-02-15T17:51:16;10.32;;;5.07;;
67378;SDS011;54262;44.642;-0.974;2023-02-15T17:53:43;4.82;;;4.53;;
67378;SDS011;54262;44.642;-0.974;2023-02-15T17:56:28;5.90;;;5.40;;
67378;SDS011;54262;44.642;-0.974;2023-02-15T17:58:53;12.98;;;7.97;;
67378;SDS011;54262;44.642;-0.974;2023-02-15T18:01:19;7.80;;;7.15;;
67378;SDS011;54262;44.642;-0.974;2023-02-15T18:04:05;7.32;;;6.68;;
67378;SDS011;54262;44.642;-0.974;2023-02-15T18:06:53;9.88;;;7.20;;
67378;SDS011;54262;44.642;-0.974;2023-02-15T18:09:37;9.65;;;8.68;;
67378;SDS011;54262;44.642;-0.974;2023-02-15T18:12:28;9.93;;;8.90;;
67378;SDS011;54262;44.642;-0.974;2023-02-15T18:14:56;13.48;;;12.15;;
67378;SDS011;54262;44.642;-0.974;2023-02-15T18:17:31;11.55;;;10.85;;
67378;SDS011;54262;44.642;-0.974;2023-02-15T18:19:59;18.42;;;16.50;;
67378;SDS011;54262;44.642;-0.974;2023-02-15T18:22:29;28.90;;;18.77;;
67378;SDS011;54262;44.642;-0.974;2023-02-15T18:24:55;18.60;;;16.27;;